sensor_id;sensor_type;location;lat;lon;timestamp;pressure;altitude;pressure_sealevel;temperature;humidity
60845;BME280;47984;51.250;6.712;2022-08-19T00:00:11;101061.41;;;17.21;46.80
60845;BME280;47984;51.250;6.712;2022-08-19T00:02:45;101062.44;;;17.19;46.15
60845;BME280;47984;51.250;6.712;2022-08-19T00:05:17;101066.06;;;17.16;46.25
60845;BME280;47984;51.250;6.712;2022-08-19T00:07:49;101061.75;;;17.15;46.22
60845;BME280;47984;51.250;6.712;2022-08-19T00:10:21;101073.25;;;17.13;46.83
60845;BME280;47984;51.250;6.712;2022-08-19T00:12:51;101070.72;;;17.11;46.63
60845;BME280;47984;51.250;6.712;2022-08-19T00:15:21;101076.97;;;17.09;46.87
60845;BME280;47984;51.250;6.712;2022-08-19T00:17:51;101063.16;;;17.05;46.38
60845;BME280;47984;51.250;6.712;2022-08-19T00:20:22;101072.88;;;17.03;46.44
60845;BME280;47984;51.250;6.712;2022-08-19T00:22:52;101068.72;;;16.99;46.46
60845;BME280;47984;51.250;6.712;2022-08-19T00:25:35;101074.91;;;16.98;46.35
60845;BME280;47984;51.250;6.712;2022-08-19T00:28:10;101069.72;;;16.96;46.20
60845;BME280;47984;51.250;6.712;2022-08-19T00:30:44;101068.09;;;16.94;46.76
60845;BME280;47984;51.250;6.712;2022-08-19T00:33:11;101059.44;;;16.92;46.69
60845;BME280;47984;51.250;6.712;2022-08-19T00:35:41;101055.94;;;16.91;46.53
60845;BME280;47984;51.250;6.712;2022-08-19T00:38:09;101060.44;;;16.89;46.66
60845;BME280;47984;51.250;6.712;2022-08-19T00:40:43;101060.50;;;16.88;46.95
60845;BME280;47984;51.250;6.712;2022-08-19T00:43:25;101060.75;;;16.83;46.94
60845;BME280;47984;51.250;6.712;2022-08-19T00:45:56;101059.19;;;16.79;46.60
60845;BME280;47984;51.250;6.712;2022-08-19T00:48:33;101060.22;;;16.76;47.11
60845;BME280;47984;51.250;6.712;2022-08-19T00:51:06;101056.88;;;16.73;47.09
60845;BME280;47984;51.250;6.712;2022-08-19T00:53:39;101063.84;;;16.74;46.41
60845;BME280;47984;51.250;6.712;2022-08-19T00:56:08;101053.56;;;16.69;46.92
60845;BME280;47984;51.250;6.712;2022-08-19T00:58:40;101053.72;;;16.66;47.12
60845;BME280;47984;51.250;6.712;2022-08-19T01:01:18;101050.34;;;16.64;46.96
60845;BME280;47984;51.250;6.712;2022-08-19T01:03:47;101050.47;;;16.61;47.39
60845;BME280;47984;51.250;6.712;2022-08-19T01:06:41;101050.63;;;16.58;46.77
60845;BME280;47984;51.250;6.712;2022-08-19T01:09:11;101057.72;;;16.56;47.27
60845;BME280;47984;51.250;6.712;2022-08-19T01:12:02;101058.72;;;16.53;46.89
60845;BME280;47984;51.250;6.712;2022-08-19T01:14:36;101058.81;;;16.52;47.31
60845;BME280;47984;51.250;6.712;2022-08-19T01:17:11;101054.47;;;16.51;46.77
60845;BME280;47984;51.250;6.712;2022-08-19T01:20:09;101047.53;;;16.50;47.59
60845;BME280;47984;51.250;6.712;2022-08-19T01:22:58;101054.63;;;16.48;46.76
60845;BME280;47984;51.250;6.712;2022-08-19T01:25:47;101059.97;;;16.46;46.69
60845;BME280;47984;51.250;6.712;2022-08-19T01:28:23;101059.16;;;16.44;46.77
60845;BME280;47984;51.250;6.712;2022-08-19T01:31:17;101055.94;;;16.39;47.22
60845;BME280;47984;51.250;6.712;2022-08-19T01:34:03;101049.97;;;16.36;47.15
60845;BME280;47984;51.250;6.712;2022-08-19T01:39:06;101036.25;;;16.30;47.38
60845;BME280;47984;51.250;6.712;2022-08-19T01:41:49;101049.44;;;16.29;46.92
60845;BME280;47984;51.250;6.712;2022-08-19T01:44:18;101046.06;;;16.27;47.12
60845;BME280;47984;51.250;6.712;2022-08-19T01:46:56;101050.50;;;16.25;47.61
60845;BME280;47984;51.250;6.712;2022-08-19T01:49:27;101053.97;;;16.25;47.04
60845;BME280;47984;51.250;6.712;2022-08-19T01:52:00;101050.66;;;16.22;47.10
60845;BME280;47984;51.250;6.712;2022-08-19T01:54:31;101048.25;;;16.17;47.49
60845;BME280;47984;51.250;6.712;2022-08-19T01:57:08;101051.75;;;16.18;47.35
60845;BME280;47984;51.250;6.712;2022-08-19T01:59:50;101048.28;;;16.16;47.59
60845;BME280;47984;51.250;6.712;2022-08-19T02:02:20;101050.13;;;16.14;47.07
60845;BME280;47984;51.250;6.712;2022-08-19T02:04:52;101045.88;;;16.11;47.37
60845;BME280;47984;51.250;6.712;2022-08-19T02:07:22;101045.03;;;16.10;47.42
60845;BME280;47984;51.250;6.712;2022-08-19T02:09:52;101038.25;;;16.06;47.41
60845;BME280;47984;51.250;6.712;2022-08-19T02:12:19;101042.66;;;16.06;47.52
60845;BME280;47984;51.250;6.712;2022-08-19T02:14:49;101049.72;;;16.04;47.20
60845;BME280;47984;51.250;6.712;2022-08-19T02:17:26;101051.56;;;16.02;47.36
60845;BME280;47984;51.250;6.712;2022-08-19T02:19:57;101051.72;;;15.99;47.55
60845;BME280;47984;51.250;6.712;2022-08-19T02:22:30;101065.75;;;15.98;47.61
60845;BME280;47984;51.250;6.712;2022-08-19T02:25:01;101064.81;;;15.99;47.30
60845;BME280;47984;51.250;6.712;2022-08-19T02:27:33;101064.06;;;15.97;47.22
60845;BME280;47984;51.250;6.712;2022-08-19T02:30:07;101062.38;;;15.96;47.21
60845;BME280;47984;51.250;6.712;2022-08-19T02:32:49;101068.59;;;15.93;47.23
60845;BME280;47984;51.250;6.712;2022-08-19T02:35:46;101063.41;;;15.92;47.28
60845;BME280;47984;51.250;6.712;2022-08-19T02:38:17;101059.09;;;15.91;47.83
60845;BME280;47984;51.250;6.712;2022-08-19T02:41:00;101060.03;;;15.90;47.81
60845;BME280;47984;51.250;6.712;2022-08-19T02:43:33;101054.00;;;15.87;47.47
60845;BME280;47984;51.250;6.712;2022-08-19T02:46:32;101059.38;;;15.84;47.67
60845;BME280;47984;51.250;6.712;2022-08-19T02:49:14;101070.81;;;15.83;47.77
60845;BME280;47984;51.250;6.712;2022-08-19T02:51:49;101065.56;;;15.83;47.46
60845;BME280;47984;51.250;6.712;2022-08-19T02:54:22;101079.66;;;15.81;47.21
60845;BME280;47984;51.250;6.712;2022-08-19T02:56:51;101067.53;;;15.78;47.68
60845;BME280;47984;51.250;6.712;2022-08-19T02:59:24;101071.09;;;15.77;47.97
60845;BME280;47984;51.250;6.712;2022-08-19T03:02:07;101070.34;;;15.74;47.81
60845;BME280;47984;51.250;6.712;2022-08-19T03:04:36;101074.88;;;15.70;47.94
60845;BME280;47984;51.250;6.712;2022-08-19T03:07:07;101077.47;;;15.72;47.81
60845;BME280;47984;51.250;6.712;2022-08-19T03:09:37;101078.31;;;15.72;47.84
60845;BME280;47984;51.250;6.712;2022-08-19T03:12:06;101075.81;;;15.69;47.52
60845;BME280;47984;51.250;6.712;2022-08-19T03:14:34;101074.97;;;15.69;47.60
60845;BME280;47984;51.250;6.712;2022-08-19T03:17:24;101075.13;;;15.66;47.87
60845;BME280;47984;51.250;6.712;2022-08-19T03:19:54;101077.78;;;15.64;47.60
60845;BME280;47984;51.250;6.712;2022-08-19T03:22:25;101077.03;;;15.62;47.94
60845;BME280;47984;51.250;6.712;2022-08-19T03:24:54;101072.78;;;15.59;47.98
60845;BME280;47984;51.250;6.712;2022-08-19T03:27:22;101072.81;;;15.58;48.24
60845;BME280;47984;51.250;6.712;2022-08-19T03:30:00;101073.91;;;15.54;48.08
60845;BME280;47984;51.250;6.712;2022-08-19T03:32:28;101075.66;;;15.53;47.86
60845;BME280;47984;51.250;6.712;2022-08-19T03:34:59;101077.38;;;15.54;48.26
60845;BME280;47984;51.250;6.712;2022-08-19T03:37:31;101075.59;;;15.55;47.63
60845;BME280;47984;51.250;6.712;2022-08-19T03:40:03;101078.22;;;15.55;48.15
60845;BME280;47984;51.250;6.712;2022-08-19T03:42:32;101081.75;;;15.54;47.75
60845;BME280;47984;51.250;6.712;2022-08-19T03:45:15;101078.34;;;15.52;47.92
60845;BME280;47984;51.250;6.712;2022-08-19T03:47:46;101079.28;;;15.51;48.00
60845;BME280;47984;51.250;6.712;2022-08-19T03:50:17;101087.28;;;15.48;47.96
60845;BME280;47984;51.250;6.712;2022-08-19T03:52:51;101085.50;;;15.48;48.18
60845;BME280;47984;51.250;6.712;2022-08-19T03:55:22;101093.34;;;15.48;47.84
60845;BME280;47984;51.250;6.712;2022-08-19T03:57:49;101078.63;;;15.46;48.30
60845;BME280;47984;51.250;6.712;2022-08-19T04:00:18;101081.31;;;15.44;47.81
60845;BME280;47984;51.250;6.712;2022-08-19T04:02:46;101082.97;;;15.47;48.18
60845;BME280;47984;51.250;6.712;2022-08-19T04:05:30;101082.09;;;15.46;48.08
60845;BME280;47984;51.250;6.712;2022-08-19T04:08:05;101083.00;;;15.45;48.18
60845;BME280;47984;51.250;6.712;2022-08-19T04:10:40;101080.34;;;15.47;47.77
60845;BME280;47984;51.250;6.712;2022-08-19T04:13:19;101083.84;;;15.46;48.25
60845;BME280;47984;51.250;6.712;2022-08-19T04:15:50;101071.97;;;15.38;48.26
60845;BME280;47984;51.250;6.712;2022-08-19T04:18:18;101079.63;;;15.43;47.96
60845;BME280;47984;51.250;6.712;2022-08-19T04:20:47;101086.69;;;15.41;48.16
60845;BME280;47984;51.250;6.712;2022-08-19T04:23:20;101081.50;;;15.39;48.09
60845;BME280;47984;51.250;6.712;2022-08-19T04:25:49;101074.44;;;15.41;47.93
60845;BME280;47984;51.250;6.712;2022-08-19T04:28:26;101066.97;;;15.32;47.84
60845;BME280;47984;51.250;6.712;2022-08-19T04:30:54;101080.81;;;15.36;48.38
60845;BME280;47984;51.250;6.712;2022-08-19T04:33:24;101080.00;;;15.34;48.35
60845;BME280;47984;51.250;6.712;2022-08-19T04:35:54;101079.13;;;15.33;48.02
60845;BME280;47984;51.250;6.712;2022-08-19T04:38:21;101078.41;;;15.30;48.16
60845;BME280;47984;51.250;6.712;2022-08-19T04:40:51;101081.00;;;15.31;48.80
60845;BME280;47984;51.250;6.712;2022-08-19T04:43:38;101083.75;;;15.28;48.41
60845;BME280;47984;51.250;6.712;2022-08-19T04:48:34;101090.75;;;15.28;48.39
60845;BME280;47984;51.250;6.712;2022-08-19T04:51:11;101087.38;;;15.24;48.60
60845;BME280;47984;51.250;6.712;2022-08-19T04:53:41;101096.25;;;15.22;48.38
60845;BME280;47984;51.250;6.712;2022-08-19T04:56:16;101104.81;;;15.25;48.66
60845;BME280;47984;51.250;6.712;2022-08-19T04:58:44;101112.69;;;15.25;48.24
60845;BME280;47984;51.250;6.712;2022-08-19T05:01:13;101119.69;;;15.25;48.46
60845;BME280;47984;51.250;6.712;2022-08-19T05:03:41;101120.53;;;15.25;48.19
60845;BME280;47984;51.250;6.712;2022-08-19T05:06:11;101124.84;;;15.26;48.51
60845;BME280;47984;51.250;6.712;2022-08-19T05:08:40;101118.91;;;15.23;48.52
60845;BME280;47984;51.250;6.712;2022-08-19T05:11:15;101130.09;;;15.26;47.97
60845;BME280;47984;51.250;6.712;2022-08-19T05:13:44;101131.03;;;15.25;48.70
60845;BME280;47984;51.250;6.712;2022-08-19T05:16:12;101132.59;;;15.29;48.70
60845;BME280;47984;51.250;6.712;2022-08-19T05:18:40;101139.50;;;15.30;48.30
60845;BME280;47984;51.250;6.712;2022-08-19T05:21:26;101141.16;;;15.33;48.15
60845;BME280;47984;51.250;6.712;2022-08-19T05:24:12;101137.63;;;15.34;48.76
60845;BME280;47984;51.250;6.712;2022-08-19T05:26:43;101139.38;;;15.33;48.52
60845;BME280;47984;51.250;6.712;2022-08-19T05:29:19;101141.91;;;15.36;48.21
60845;BME280;47984;51.250;6.712;2022-08-19T05:31:49;101131.47;;;15.35;48.28
60845;BME280;47984;51.250;6.712;2022-08-19T05:34:18;101141.84;;;15.38;48.31
60845;BME280;47984;51.250;6.712;2022-08-19T05:36:50;101145.28;;;15.40;48.25
60845;BME280;47984;51.250;6.712;2022-08-19T05:39:19;101147.81;;;15.41;48.71
60845;BME280;47984;51.250;6.712;2022-08-19T05:41:49;101151.22;;;15.44;48.31
60845;BME280;47984;51.250;6.712;2022-08-19T05:44:19;101143.22;;;15.47;48.77
60845;BME280;47984;51.250;6.712;2022-08-19T05:46:47;101137.09;;;15.46;48.70
60845;BME280;47984;51.250;6.712;2022-08-19T05:49:15;101140.38;;;15.51;48.39
60845;BME280;47984;51.250;6.712;2022-08-19T05:51:43;101149.03;;;15.53;48.92
60845;BME280;47984;51.250;6.712;2022-08-19T05:54:09;101148.13;;;15.54;48.69
60845;BME280;47984;51.250;6.712;2022-08-19T05:56:41;101155.84;;;15.57;48.91
60845;BME280;47984;51.250;6.712;2022-08-19T05:59:10;101148.69;;;15.61;48.82
60845;BME280;47984;51.250;6.712;2022-08-19T06:01:39;101150.34;;;15.63;48.53
60845;BME280;47984;51.250;6.712;2022-08-19T06:04:07;101152.03;;;15.64;48.49
60845;BME280;47984;51.250;6.712;2022-08-19T06:06:35;101149.22;;;15.69;48.44
60845;BME280;47984;51.250;6.712;2022-08-19T06:09:04;101143.00;;;15.72;48.45
60845;BME280;47984;51.250;6.712;2022-08-19T06:14:08;101146.25;;;15.77;48.72
60845;BME280;47984;51.250;6.712;2022-08-19T06:16:43;101139.16;;;15.79;49.11
60845;BME280;47984;51.250;6.712;2022-08-19T06:19:15;101142.44;;;15.84;48.53
60845;BME280;47984;51.250;6.712;2022-08-19T06:21:44;101135.34;;;15.86;49.02
60845;BME280;47984;51.250;6.712;2022-08-19T06:24:14;101137.81;;;15.89;48.18
60845;BME280;47984;51.250;6.712;2022-08-19T06:26:45;101136.84;;;15.92;48.77
60845;BME280;47984;51.250;6.712;2022-08-19T06:29:20;101141.03;;;15.96;48.71
60845;BME280;47984;51.250;6.712;2022-08-19T06:31:52;101145.22;;;16.00;48.62
60845;BME280;47984;51.250;6.712;2022-08-19T06:34:19;101136.34;;;16.02;49.13
60845;BME280;47984;51.250;6.712;2022-08-19T06:36:48;101131.72;;;16.07;48.76
60845;BME280;47984;51.250;6.712;2022-08-19T06:39:22;101134.06;;;16.14;48.69
60845;BME280;47984;51.250;6.712;2022-08-19T06:41:54;101127.81;;;16.18;49.07
60845;BME280;47984;51.250;6.712;2022-08-19T06:44:28;101143.31;;;16.22;48.81
60845;BME280;47984;51.250;6.712;2022-08-19T06:46:57;101140.50;;;16.27;48.95
60845;BME280;47984;51.250;6.712;2022-08-19T06:49:24;101143.72;;;16.32;49.39
60845;BME280;47984;51.250;6.712;2022-08-19T06:51:51;101139.13;;;16.37;48.88
60845;BME280;47984;51.250;6.712;2022-08-19T06:54:19;101130.25;;;16.40;48.96
60845;BME280;47984;51.250;6.712;2022-08-19T06:56:46;101137.06;;;16.44;49.06
60845;BME280;47984;51.250;6.712;2022-08-19T06:59:18;101150.59;;;16.53;48.83
60845;BME280;47984;51.250;6.712;2022-08-19T07:01:52;101148.59;;;16.59;49.08
60845;BME280;47984;51.250;6.712;2022-08-19T07:04:26;101151.84;;;16.64;49.52
60845;BME280;47984;51.250;6.712;2022-08-19T07:07:03;101148.84;;;16.71;49.02
60845;BME280;47984;51.250;6.712;2022-08-19T07:09:48;101142.50;;;16.75;49.35
60845;BME280;47984;51.250;6.712;2022-08-19T07:12:28;101146.41;;;16.86;49.16
60845;BME280;47984;51.250;6.712;2022-08-19T07:14:57;101142.53;;;16.93;49.17
60845;BME280;47984;51.250;6.712;2022-08-19T07:17:25;101143.22;;;16.98;49.03
60845;BME280;47984;51.250;6.712;2022-08-19T07:19:52;101154.25;;;17.05;48.91
60845;BME280;47984;51.250;6.712;2022-08-19T07:22:20;101159.19;;;17.11;48.85
60845;BME280;47984;51.250;6.712;2022-08-19T07:24:51;101158.88;;;17.17;49.28
60845;BME280;47984;51.250;6.712;2022-08-19T07:27:18;101155.16;;;17.21;49.34
60845;BME280;47984;51.250;6.712;2022-08-19T07:29:52;101165.13;;;17.32;49.05
60845;BME280;47984;51.250;6.712;2022-08-19T07:32:22;101169.16;;;17.39;49.00
60845;BME280;47984;51.250;6.712;2022-08-19T07:34:49;101170.53;;;17.46;49.23
60845;BME280;47984;51.250;6.712;2022-08-19T07:37:16;101162.31;;;17.52;49.24
60845;BME280;47984;51.250;6.712;2022-08-19T07:39:43;101163.69;;;17.59;49.25
60845;BME280;47984;51.250;6.712;2022-08-19T07:42:10;101170.41;;;17.65;48.53
60845;BME280;47984;51.250;6.712;2022-08-19T07:44:39;101170.63;;;17.78;49.44
60845;BME280;47984;51.250;6.712;2022-08-19T07:47:11;101170.31;;;17.84;48.86
60845;BME280;47984;51.250;6.712;2022-08-19T07:49:59;101185.59;;;17.93;48.68
60845;BME280;47984;51.250;6.712;2022-08-19T07:52:26;101180.00;;;17.99;49.38
60845;BME280;47984;51.250;6.712;2022-08-19T07:54:53;101182.25;;;18.07;48.77
60845;BME280;47984;51.250;6.712;2022-08-19T07:57:20;101187.19;;;18.13;48.83
60845;BME280;47984;51.250;6.712;2022-08-19T07:59:47;101190.50;;;18.16;49.17
60845;BME280;47984;51.250;6.712;2022-08-19T08:02:14;101198.06;;;18.23;48.75
60845;BME280;47984;51.250;6.712;2022-08-19T08:04:41;101194.47;;;18.24;49.30
60845;BME280;47984;51.250;6.712;2022-08-19T08:07:27;101208.31;;;18.27;48.80
60845;BME280;47984;51.250;6.712;2022-08-19T08:10:13;101207.22;;;18.31;48.84
60845;BME280;47984;51.250;6.712;2022-08-19T08:12:47;101209.44;;;18.39;48.72
60845;BME280;47984;51.250;6.712;2022-08-19T08:15:34;101210.97;;;18.43;49.21
60845;BME280;47984;51.250;6.712;2022-08-19T08:18:09;101194.16;;;18.46;49.21
60845;BME280;47984;51.250;6.712;2022-08-19T08:20:37;101206.75;;;18.56;49.36
60845;BME280;47984;51.250;6.712;2022-08-19T08:23:04;101208.09;;;18.64;48.98
60845;BME280;47984;51.250;6.712;2022-08-19T08:25:49;101204.19;;;18.71;49.24
60845;BME280;47984;51.250;6.712;2022-08-19T08:28:17;101207.41;;;18.76;48.80
60845;BME280;47984;51.250;6.712;2022-08-19T08:30:46;101210.63;;;18.81;48.80
60845;BME280;47984;51.250;6.712;2022-08-19T08:33:22;101218.09;;;18.89;49.09
60845;BME280;47984;51.250;6.712;2022-08-19T08:36:04;101220.47;;;18.93;48.74
60845;BME280;47984;51.250;6.712;2022-08-19T08:38:32;101222.84;;;18.98;49.45
60845;BME280;47984;51.250;6.712;2022-08-19T08:43:55;101222.22;;;19.08;49.27
60845;BME280;47984;51.250;6.712;2022-08-19T08:46:49;101223.66;;;19.14;48.43
60845;BME280;47984;51.250;6.712;2022-08-19T08:52:03;101209.13;;;19.23;49.26
60845;BME280;47984;51.250;6.712;2022-08-19T08:54:40;101209.59;;;19.29;49.16
60845;BME280;47984;51.250;6.712;2022-08-19T09:00:35;101203.78;;;19.39;48.84
60845;BME280;47984;51.250;6.712;2022-08-19T09:03:08;101211.31;;;19.45;48.84
60845;BME280;47984;51.250;6.712;2022-08-19T09:05:41;101208.44;;;19.49;49.27
60845;BME280;47984;51.250;6.712;2022-08-19T09:08:39;101210.53;;;19.59;48.32
60845;BME280;47984;51.250;6.712;2022-08-19T09:11:15;101202.31;;;19.63;49.12
60845;BME280;47984;51.250;6.712;2022-08-19T09:14:15;101202.59;;;19.73;48.22
60845;BME280;47984;51.250;6.712;2022-08-19T09:17:05;101204.88;;;19.79;49.06
60845;BME280;47984;51.250;6.712;2022-08-19T09:19:46;101197.75;;;19.81;48.14
60845;BME280;47984;51.250;6.712;2022-08-19T09:22:18;101197.44;;;19.86;48.81
60845;BME280;47984;51.250;6.712;2022-08-19T09:24:54;101213.09;;;19.89;48.36
60845;BME280;47984;51.250;6.712;2022-08-19T09:27:23;101207.53;;;19.93;48.94
60845;BME280;47984;51.250;6.712;2022-08-19T09:30:19;101202.06;;;19.96;48.50
60845;BME280;47984;51.250;6.712;2022-08-19T09:32:46;101205.28;;;20.02;48.97
60845;BME280;47984;51.250;6.712;2022-08-19T09:35:21;101199.81;;;20.05;48.36
60845;BME280;47984;51.250;6.712;2022-08-19T09:37:50;101195.94;;;20.10;48.74
60845;BME280;47984;51.250;6.712;2022-08-19T09:40:24;101203.56;;;20.15;48.42
60845;BME280;47984;51.250;6.712;2022-08-19T09:42:52;101201.38;;;20.21;48.73
60845;BME280;47984;51.250;6.712;2022-08-19T09:45:20;101201.97;;;20.27;48.30
60845;BME280;47984;51.250;6.712;2022-08-19T09:47:52;101197.22;;;20.32;48.36
60845;BME280;47984;51.250;6.712;2022-08-19T09:50:21;101199.38;;;20.39;48.03
60845;BME280;47984;51.250;6.712;2022-08-19T09:52:48;101195.59;;;20.43;48.60
60845;BME280;47984;51.250;6.712;2022-08-19T09:55:24;101191.44;;;20.54;48.02
60845;BME280;47984;51.250;6.712;2022-08-19T09:58:00;101191.78;;;20.62;48.68
60845;BME280;47984;51.250;6.712;2022-08-19T10:00:27;101194.03;;;20.68;48.18
60845;BME280;47984;51.250;6.712;2022-08-19T10:02:54;101191.75;;;20.76;48.72
60845;BME280;47984;51.250;6.712;2022-08-19T10:05:22;101191.34;;;20.82;47.93
60845;BME280;47984;51.250;6.712;2022-08-19T10:08:09;101201.53;;;20.88;47.73
60845;BME280;47984;51.250;6.712;2022-08-19T10:10:42;101194.13;;;20.94;47.63
60845;BME280;47984;51.250;6.712;2022-08-19T10:13:14;101185.06;;;20.98;47.53
60845;BME280;47984;51.250;6.712;2022-08-19T10:15:42;101191.81;;;21.02;47.67
60845;BME280;47984;51.250;6.712;2022-08-19T10:18:14;101177.75;;;21.01;48.11
60845;BME280;47984;51.250;6.712;2022-08-19T10:20:48;101183.38;;;21.09;47.92
60845;BME280;47984;51.250;6.712;2022-08-19T10:23:19;101181.38;;;21.13;47.64
60845;BME280;47984;51.250;6.712;2022-08-19T10:25:47;101181.00;;;21.19;48.46
60845;BME280;47984;51.250;6.712;2022-08-19T10:28:14;101177.91;;;21.25;48.04
60845;BME280;47984;51.250;6.712;2022-08-19T10:30:45;101166.19;;;21.29;48.42
60845;BME280;47984;51.250;6.712;2022-08-19T10:33:13;101168.44;;;21.35;47.83
60845;BME280;47984;51.250;6.712;2022-08-19T10:36:08;101160.16;;;21.40;47.79
60845;BME280;47984;51.250;6.712;2022-08-19T10:38:37;101161.66;;;21.44;48.06
60845;BME280;47984;51.250;6.712;2022-08-19T10:41:13;101162.94;;;21.51;47.30
60845;BME280;47984;51.250;6.712;2022-08-19T10:43:41;101162.72;;;21.54;47.63
60845;BME280;47984;51.250;6.712;2022-08-19T10:46:09;101175.41;;;21.62;47.76
60845;BME280;47984;51.250;6.712;2022-08-19T10:48:43;101172.53;;;21.65;47.25
60845;BME280;47984;51.250;6.712;2022-08-19T10:51:11;101171.38;;;21.69;48.10
60845;BME280;47984;51.250;6.712;2022-08-19T10:53:58;101161.66;;;21.70;47.93
60845;BME280;47984;51.250;6.712;2022-08-19T10:56:27;101167.44;;;21.75;47.54
60845;BME280;47984;51.250;6.712;2022-08-19T10:59:13;101163.69;;;21.79;47.14
60845;BME280;47984;51.250;6.712;2022-08-19T11:01:43;101163.34;;;21.84;47.94
60845;BME280;47984;51.250;6.712;2022-08-19T11:04:11;101151.91;;;21.83;47.39
60845;BME280;47984;51.250;6.712;2022-08-19T11:06:41;101165.13;;;21.96;47.33
60845;BME280;47984;51.250;6.712;2022-08-19T11:09:10;101168.28;;;22.01;47.81
60845;BME280;47984;51.250;6.712;2022-08-19T11:11:38;101162.78;;;22.04;47.11
60845;BME280;47984;51.250;6.712;2022-08-19T11:14:13;101163.41;;;22.08;47.47
60845;BME280;47984;51.250;6.712;2022-08-19T11:16:41;101149.31;;;22.07;47.64
60845;BME280;47984;51.250;6.712;2022-08-19T11:19:10;101159.69;;;22.10;47.37
60845;BME280;47984;51.250;6.712;2022-08-19T11:21:43;101162.00;;;22.15;47.58
60845;BME280;47984;51.250;6.712;2022-08-19T11:24:20;101162.44;;;22.21;47.74
60845;BME280;47984;51.250;6.712;2022-08-19T11:26:49;101152.44;;;22.25;47.64
60845;BME280;47984;51.250;6.712;2022-08-19T11:29:19;101159.09;;;22.31;47.60
60845;BME280;47984;51.250;6.712;2022-08-19T11:31:48;101153.34;;;22.37;47.33
60845;BME280;47984;51.250;6.712;2022-08-19T11:34:18;101149.63;;;22.39;46.98
60845;BME280;47984;51.250;6.712;2022-08-19T11:36:47;101144.25;;;22.41;46.74
60845;BME280;47984;51.250;6.712;2022-08-19T11:39:17;101147.31;;;22.47;47.47
60845;BME280;47984;51.250;6.712;2022-08-19T11:41:44;101146.25;;;22.50;47.02
60845;BME280;47984;51.250;6.712;2022-08-19T11:44:11;101140.94;;;22.50;47.00
60845;BME280;47984;51.250;6.712;2022-08-19T11:46:42;101138.53;;;22.58;47.14
60845;BME280;47984;51.250;6.712;2022-08-19T11:49:15;101128.69;;;22.60;47.18
60845;BME280;47984;51.250;6.712;2022-08-19T11:51:43;101138.31;;;22.61;46.36
60845;BME280;47984;51.250;6.712;2022-08-19T11:54:10;101127.50;;;22.64;47.07
60845;BME280;47984;51.250;6.712;2022-08-19T11:56:38;101134.38;;;22.67;46.33
60845;BME280;47984;51.250;6.712;2022-08-19T11:59:06;101122.09;;;22.66;46.81
60845;BME280;47984;51.250;6.712;2022-08-19T12:01:40;101127.25;;;22.67;46.64
60845;BME280;47984;51.250;6.712;2022-08-19T12:04:09;101130.66;;;22.69;47.04
60845;BME280;47984;51.250;6.712;2022-08-19T12:06:38;101121.03;;;22.68;47.05
60845;BME280;47984;51.250;6.712;2022-08-19T12:09:07;101133.81;;;22.75;46.12
60845;BME280;47984;51.250;6.712;2022-08-19T12:11:37;101126.81;;;22.73;46.38
60845;BME280;47984;51.250;6.712;2022-08-19T12:14:05;101125.63;;;22.78;46.85
60845;BME280;47984;51.250;6.712;2022-08-19T12:16:32;101131.53;;;22.81;46.03
60845;BME280;47984;51.250;6.712;2022-08-19T12:19:00;101130.34;;;22.85;46.46
60845;BME280;47984;51.250;6.712;2022-08-19T12:21:32;101123.97;;;22.88;46.20
60845;BME280;47984;51.250;6.712;2022-08-19T12:24:01;101122.91;;;22.90;46.22
60845;BME280;47984;51.250;6.712;2022-08-19T12:26:29;101122.91;;;22.90;45.89
60845;BME280;47984;51.250;6.712;2022-08-19T12:28:58;101116.63;;;22.91;46.24
60845;BME280;47984;51.250;6.712;2022-08-19T12:31:27;101119.28;;;22.91;46.04
60845;BME280;47984;51.250;6.712;2022-08-19T12:33:55;101115.78;;;22.91;46.06
60845;BME280;47984;51.250;6.712;2022-08-19T12:36:22;101106.88;;;22.92;45.94
60845;BME280;47984;51.250;6.712;2022-08-19T12:38:50;101116.63;;;22.91;46.04
60845;BME280;47984;51.250;6.712;2022-08-19T12:41:19;101114.72;;;22.93;46.05
60845;BME280;47984;51.250;6.712;2022-08-19T12:43:49;101115.41;;;22.95;46.14
60845;BME280;47984;51.250;6.712;2022-08-19T12:46:18;101121.59;;;22.96;45.95
60845;BME280;47984;51.250;6.712;2022-08-19T12:48:47;101107.59;;;22.94;46.36
60845;BME280;47984;51.250;6.712;2022-08-19T12:51:21;101118.06;;;22.95;46.06
60845;BME280;47984;51.250;6.712;2022-08-19T12:53:48;101110.13;;;22.95;46.32
60845;BME280;47984;51.250;6.712;2022-08-19T12:56:16;101106.63;;;22.95;45.97
60845;BME280;47984;51.250;6.712;2022-08-19T12:58:49;101108.19;;;22.98;45.71
60845;BME280;47984;51.250;6.712;2022-08-19T13:01:18;101109.03;;;22.98;45.43
60845;BME280;47984;51.250;6.712;2022-08-19T13:03:49;101096.88;;;22.95;46.14
60845;BME280;47984;51.250;6.712;2022-08-19T13:06:19;101104.72;;;22.97;46.07
60845;BME280;47984;51.250;6.712;2022-08-19T13:08:46;101094.09;;;22.97;45.41
60845;BME280;47984;51.250;6.712;2022-08-19T13:11:16;101095.91;;;22.96;45.81
60845;BME280;47984;51.250;6.712;2022-08-19T13:13:47;101104.47;;;23.00;45.10
60845;BME280;47984;51.250;6.712;2022-08-19T13:16:15;101095.69;;;23.00;45.27
60845;BME280;47984;51.250;6.712;2022-08-19T13:18:44;101090.72;;;22.95;45.49
60845;BME280;47984;51.250;6.712;2022-08-19T13:21:13;101099.94;;;23.02;45.46
60845;BME280;47984;51.250;6.712;2022-08-19T13:23:40;101095.47;;;23.03;45.55
60845;BME280;47984;51.250;6.712;2022-08-19T13:26:09;101099.94;;;23.02;45.44
60845;BME280;47984;51.250;6.712;2022-08-19T13:28:37;101099.94;;;23.02;45.11
60845;BME280;47984;51.250;6.712;2022-08-19T13:31:33;101091.75;;;23.05;44.85
60845;BME280;47984;51.250;6.712;2022-08-19T13:34:30;101078.59;;;23.04;45.03